Time;durP1;ratioP1;P1;durP2;ratioP2;P2;SDS_P1;SDS_P2;PMS_P1;PMS_P2;Temp;Humidity;BMP_temperature;BMP_pressure;BME280_temperature;BME280_humidity;BME280_pressure;Samples;Min_cycle;Max_cycle;Signal;HPM_P1;HPM_P2
2021/06/29 00:00:24;;;;;;;0.70;0.70;;;;;;;18.82;67.81;99343.06;1799106;78;21041;-55
2021/06/29 00:03:01;;;;;;;0.70;0.70;;;;;;;18.79;67.99;99350.17;1798467;78;21077;-55
2021/06/29 00:05:31;;;;;;;1.15;0.60;;;;;;;18.76;68.15;99354.52;1766704;80;21087;-55
2021/06/29 00:08:02;;;;;;;1.50;0.80;;;;;;;18.72;68.28;99356.64;1769530;80;21497;-54
2021/06/29 00:10:29;;;;;;;3.45;0.70;;;;;;;18.68;68.53;99357.92;1801666;78;21111;-55
2021/06/29 00:12:55;;;;;;;0.78;0.78;;;;;;;18.65;68.67;99356.81;1800361;78;21029;-55
2021/06/29 00:15:23;;;;;;;1.00;0.70;;;;;;;18.62;68.84;99356.23;1747117;80;21109;-55
2021/06/29 00:17:49;;;;;;;0.90;0.70;;;;;;;18.58;68.92;99354.27;1748971;80;20987;-55
2021/06/29 00:20:16;;;;;;;1.52;0.72;;;;;;;18.56;68.98;99354.86;1746684;80;21124;-54
2021/06/29 00:22:42;;;;;;;2.58;0.60;;;;;;;18.54;69.09;99352.80;1736090;81;21066;-54
2021/06/29 00:25:09;;;;;;;0.80;0.70;;;;;;;18.52;69.20;99354.28;1745575;80;21050;-55
2021/06/29 00:27:36;;;;;;;2.80;0.80;;;;;;;18.52;69.34;99352.05;1740396;80;21053;-55
2021/06/29 00:30:04;;;;;;;6.58;3.90;;;;;;;18.50;69.47;99348.09;1740849;80;21091;-55
2021/06/29 00:32:30;;;;;;;4.58;4.28;;;;;;;18.51;69.58;99347.59;1804412;78;21063;-55
2021/06/29 00:34:57;;;;;;;7.12;6.15;;;;;;;18.51;69.70;99347.09;1797284;78;21295;-54
2021/06/29 00:37:23;;;;;;;18.82;13.93;;;;;;;18.52;69.78;99348.83;1799218;78;21073;-55
2021/06/29 00:39:49;;;;;;;14.78;13.35;;;;;;;18.53;69.77;99349.70;1747707;80;21908;-55
2021/06/29 00:42:16;;;;;;;14.40;11.30;;;;;;;18.51;69.79;99353.05;1776560;78;22276;-55
2021/06/29 00:44:44;;;;;;;9.85;8.95;;;;;;;18.50;69.85;99354.05;1801281;78;21103;-55
2021/06/29 00:47:10;;;;;;;10.58;9.58;;;;;;;18.48;69.97;99353.30;1754548;78;21076;-55
2021/06/29 00:49:37;;;;;;;13.00;11.80;;;;;;;18.47;70.07;99356.52;1804571;78;21506;-54
2021/06/29 00:52:06;;;;;;;18.98;17.27;;;;;;;18.48;70.14;99356.89;1802575;78;21147;-55
2021/06/29 00:54:33;;;;;;;23.40;21.15;;;;;;;18.47;70.26;99346.98;1753700;81;21559;-55
2021/06/29 00:57:00;;;;;;;24.30;20.60;;;;;;;18.48;70.37;99347.36;1751591;81;21625;-54
2021/06/29 00:59:26;;;;;;;26.23;21.97;;;;;;;18.50;70.45;99346.73;1740511;80;21787;-54
2021/06/29 01:01:53;;;;;;;25.48;20.27;;;;;;;18.51;70.46;99353.05;1747149;81;21520;-55
2021/06/29 01:04:19;;;;;;;30.12;23.38;;;;;;;18.49;70.47;99355.91;1747319;81;20974;-54
2021/06/29 01:06:45;;;;;;;32.63;21.97;;;;;;;18.48;70.52;99360.98;1747355;81;20941;-54
2021/06/29 01:09:11;;;;;;;30.82;21.10;;;;;;;18.46;70.56;99360.73;1746975;81;21755;-55
2021/06/29 01:11:38;;;;;;;29.40;17.67;;;;;;;18.45;70.69;99358.55;1747033;81;21432;-54
2021/06/29 01:14:15;;;;;;;26.73;18.00;;;;;;;18.44;70.75;99367.72;1747772;81;20957;-54
2021/06/29 01:16:42;;;;;;;28.05;17.80;;;;;;;18.43;70.84;99375.52;1811818;78;20937;-54
2021/06/29 01:19:08;;;;;;;31.25;20.80;;;;;;;18.43;70.92;99370.56;1804543;78;21381;-54
2021/06/29 01:21:37;;;;;;;36.70;23.65;;;;;;;18.43;70.89;99371.92;1808521;78;21106;-54
2021/06/29 01:24:06;;;;;;;41.25;26.23;;;;;;;18.41;70.99;99372.05;1745127;80;21031;-54
2021/06/29 01:26:35;;;;;;;43.33;27.07;;;;;;;18.40;71.00;99366.23;1753125;80;21118;-55
2021/06/29 01:29:03;;;;;;;49.08;30.52;;;;;;;18.39;71.03;99367.72;1804747;78;21066;-54
2021/06/29 01:31:30;;;;;;;45.85;27.20;;;;;;;18.37;71.03;99367.85;1806299;78;21032;-54
2021/06/29 01:33:56;;;;;;;35.33;23.25;;;;;;;18.35;71.09;99367.14;1742696;80;22820;-54
2021/06/29 01:36:25;;;;;;;35.28;22.27;;;;;;;18.33;71.18;99369.63;1729290;81;21103;-55
2021/06/29 01:38:51;;;;;;;34.08;19.70;;;;;;;18.32;71.34;99365.16;1767409;79;20992;-55
2021/06/29 01:41:21;;;;;;;32.00;17.20;;;;;;;18.31;71.41;99363.44;1743558;81;20928;-54
2021/06/29 01:46:17;;;;;;;25.25;16.27;;;;;;;18.31;71.37;99368.39;1742498;81;21143;-55
2021/06/29 01:48:48;;;;;;;24.30;16.45;;;;;;;18.30;71.40;99368.52;1804068;78;21074;-54
2021/06/29 01:51:15;;;;;;;23.07;14.83;;;;;;;18.28;71.41;99365.08;1804195;78;21077;-53
2021/06/29 01:53:41;;;;;;;22.77;17.15;;;;;;;18.26;71.49;99366.57;1799341;78;21127;-57
2021/06/29 01:56:14;;;;;;;24.02;14.50;;;;;;;18.21;71.39;99364.72;1811923;78;20917;-56
2021/06/29 01:58:36;;;;;;;16.87;12.35;;;;;;;18.17;71.47;99361.91;1802745;78;21158;-56
2021/06/29 02:01:02;;;;;;;14.65;9.83;;;;;;;18.14;71.52;99363.02;1736687;80;21044;-56
2021/06/29 02:03:29;;;;;;;16.05;9.18;;;;;;;18.12;71.70;99363.64;1729809;81;21086;-56
2021/06/29 02:05:55;;;;;;;12.80;8.95;;;;;;;18.11;71.87;99363.30;1733356;81;21133;-56
2021/06/29 02:08:21;;;;;;;14.13;8.70;;;;;;;18.12;72.00;99362.28;1761890;79;21049;-57
2021/06/29 02:10:48;;;;;;;15.08;10.10;;;;;;;18.11;72.17;99367.39;1765829;79;21474;-54
2021/06/29 02:13:14;;;;;;;15.70;10.18;;;;;;;18.13;72.21;99357.70;1765541;79;21074;-54
2021/06/29 02:15:40;;;;;;;12.00;8.08;;;;;;;18.14;72.29;99355.34;1763191;79;21073;-56
2021/06/29 02:18:06;;;;;;;11.20;7.72;;;;;;;18.14;72.32;99361.66;1766299;79;21155;-55
2021/06/29 02:20:33;;;;;;;7.45;5.40;;;;;;;18.14;72.44;99350.77;1768037;79;21356;-56
2021/06/29 02:22:59;;;;;;;7.65;6.25;;;;;;;18.16;72.57;99357.45;1763364;79;21786;-56
2021/06/29 02:25:26;;;;;;;8.73;3.60;;;;;;;18.19;72.66;99361.78;1763857;79;21108;-56
2021/06/29 02:27:52;;;;;;;9.28;4.47;;;;;;;18.20;72.71;99360.79;1766487;79;21064;-56
2021/06/29 02:30:19;;;;;;;9.60;4.85;;;;;;;18.23;72.72;99356.42;1759758;79;21112;-57
2021/06/29 02:32:45;;;;;;;6.47;2.98;;;;;;;18.26;72.79;99354.81;1762844;79;21108;-57
2021/06/29 02:35:11;;;;;;;5.90;3.42;;;;;;;18.29;72.74;99356.75;1734799;81;22421;-56
2021/06/29 02:37:38;;;;;;;7.28;3.45;;;;;;;18.33;72.81;99360.09;1763173;79;21722;-56
2021/06/29 02:40:06;;;;;;;7.00;4.58;;;;;;;18.36;72.81;99360.70;1763971;79;21655;-56
2021/06/29 02:42:33;;;;;;;4.25;3.70;;;;;;;18.39;72.89;99354.09;1734447;81;21576;-55
2021/06/29 02:45:05;;;;;;;5.35;2.75;;;;;;;18.43;72.96;99357.80;1737078;81;21044;-55
2021/06/29 02:47:27;;;;;;;7.47;2.72;;;;;;;18.46;72.87;99353.92;1733266;81;21164;-55
2021/06/29 02:49:53;;;;;;;3.30;2.17;;;;;;;18.50;72.87;99349.95;1732986;81;21129;-55
2021/06/29 02:52:19;;;;;;;2.27;1.87;;;;;;;18.54;72.89;99350.90;1758973;79;21048;-54
2021/06/29 02:54:46;;;;;;;3.87;1.95;;;;;;;18.59;72.89;99354.64;1733979;80;21104;-55
2021/06/29 02:57:12;;;;;;;1.40;1.30;;;;;;;18.64;72.80;99359.17;1733825;81;21049;-56
2021/06/29 02:59:38;;;;;;;2.30;1.40;;;;;;;18.67;72.76;99362.14;1759633;79;21133;-55
2021/06/29 03:02:05;;;;;;;1.75;1.32;;;;;;;18.70;72.71;99359.16;1764187;79;21106;-55
2021/06/29 03:04:31;;;;;;;1.62;1.27;;;;;;;18.73;72.66;99355.64;1763672;79;21081;-55
2021/06/29 03:06:57;;;;;;;1.20;1.10;;;;;;;18.77;72.62;99360.34;1761528;79;21530;-57
2021/06/29 03:09:23;;;;;;;2.80;1.22;;;;;;;18.81;72.65;99359.92;1759901;79;21073;-55
2021/06/29 03:11:50;;;;;;;4.53;1.10;;;;;;;18.86;72.51;99367.22;1761115;79;21097;-55
2021/06/29 03:14:16;;;;;;;1.90;1.00;;;;;;;18.91;72.48;99366.79;1735587;80;21025;-57
2021/06/29 03:16:43;;;;;;;1.65;1.00;;;;;;;18.97;72.36;99370.86;1735441;81;21021;-54
2021/06/29 03:19:09;;;;;;;1.00;0.90;;;;;;;19.02;72.25;99371.30;1743101;80;21520;-54
2021/06/29 03:21:35;;;;;;;2.40;1.12;;;;;;;19.07;72.25;99371.24;1742313;80;21089;-56
2021/06/29 03:24:02;;;;;;;1.60;1.50;;;;;;;19.13;72.21;99375.31;1740724;80;21776;-54
2021/06/29 03:26:28;;;;;;;3.35;1.30;;;;;;;19.14;72.10;99381.13;1735326;81;21001;-56
2021/06/29 03:28:54;;;;;;;1.10;1.00;;;;;;;19.17;72.21;99378.97;1734280;81;21085;-56
2021/06/29 03:31:21;;;;;;;2.52;0.95;;;;;;;19.18;72.19;99382.07;1763253;79;21037;-55
2021/06/29 03:33:47;;;;;;;4.08;1.00;;;;;;;19.19;72.19;99387.03;1764430;79;21110;-56
2021/06/29 03:36:13;;;;;;;1.15;0.90;;;;;;;19.20;72.21;99386.89;1758944;79;21123;-55
2021/06/29 03:38:40;;;;;;;1.10;1.00;;;;;;;19.21;72.03;99383.67;1761092;79;21119;-58
2021/06/29 03:43:14;;;;;;;1.75;1.10;;;;;;;19.27;72.05;99388.07;1755529;78;28163;-55
2021/06/29 03:45:40;;;;;;;1.00;0.90;;;;;;;19.24;72.05;99392.92;1715874;81;21562;-55
2021/06/29 03:48:07;;;;;;;1.87;1.07;;;;;;;19.24;71.94;99388.83;1669686;83;21151;-53
2021/06/29 03:50:33;;;;;;;6.15;1.20;;;;;;;19.26;71.98;99391.80;1671851;83;20887;-55
2021/06/29 03:53:00;;;;;;;1.30;1.02;;;;;;;19.27;71.96;99396.75;1670418;83;21440;-54
2021/06/29 03:55:27;;;;;;;1.72;1.12;;;;;;;19.30;71.92;99397.86;1672159;83;20975;-55
2021/06/29 03:57:54;;;;;;;4.50;1.07;;;;;;;19.32;71.74;99390.87;1671775;83;20928;-55
2021/06/29 04:00:20;;;;;;;2.80;1.02;;;;;;;19.35;71.74;99385.14;1675026;83;21059;-57
2021/06/29 04:02:46;;;;;;;1.20;1.00;;;;;;;19.38;71.83;99395.30;1672605;83;20927;-55
2021/06/29 04:05:17;;;;;;;2.95;1.25;;;;;;;19.42;71.98;99394.00;1672189;83;20935;-57
2021/06/29 04:07:41;;;;;;;1.87;1.10;;;;;;;19.46;71.88;99388.64;1674652;83;20935;-57
2021/06/29 04:10:08;;;;;;;1.35;1.15;;;;;;;19.50;71.68;99399.66;1674171;83;20947;-58
2021/06/29 04:12:34;;;;;;;1.75;1.65;;;;;;;19.53;71.54;99391.70;1672968;83;22389;-57
2021/06/29 04:15:01;;;;;;;2.85;1.22;;;;;;;19.55;71.46;99399.27;1673511;83;21263;-57
2021/06/29 04:17:27;;;;;;;2.47;1.20;;;;;;;19.60;71.48;99388.78;1667335;83;22394;-56
2021/06/29 04:19:53;;;;;;;2.12;1.35;;;;;;;19.64;71.44;99388.88;1662172;83;21223;-57
2021/06/29 04:22:19;;;;;;;3.12;1.20;;;;;;;19.67;71.42;99387.21;1670335;83;21070;-56
2021/06/29 04:24:46;;;;;;;2.30;1.30;;;;;;;19.71;71.51;99385.08;1642802;84;21766;-57
2021/06/29 04:27:12;;;;;;;1.65;1.10;;;;;;;19.77;71.46;99391.33;1666970;83;21082;-56
2021/06/29 04:29:38;;;;;;;2.02;1.82;;;;;;;19.82;71.45;99380.86;1669941;83;21094;-57
2021/06/29 04:32:05;;;;;;;2.25;1.30;;;;;;;19.86;71.48;99383.16;1667435;83;21721;-58
2021/06/29 04:34:32;;;;;;;1.72;1.30;;;;;;;19.92;71.43;99378.48;1668944;84;21088;-58
2021/06/29 04:36:58;;;;;;;2.27;1.30;;;;;;;19.98;71.45;99383.91;1669261;84;21115;-57
2021/06/29 04:39:24;;;;;;;5.35;1.10;;;;;;;20.03;71.27;99380.23;1671037;84;21192;-57
2021/06/29 04:41:51;;;;;;;5.00;1.52;;;;;;;20.08;71.23;99372.95;1663802;84;21080;-56
2021/06/29 04:44:17;;;;;;;1.60;1.10;;;;;;;20.13;71.11;99373.41;1657326;84;21670;-58
2021/06/29 04:46:44;;;;;;;1.40;1.15;;;;;;;20.17;71.02;99377.06;1655856;84;21048;-58
2021/06/29 04:49:10;;;;;;;1.75;1.62;;;;;;;20.20;71.01;99369.95;1660046;84;21119;-57
2021/06/29 04:51:37;;;;;;;1.75;1.65;;;;;;;20.25;70.80;99370.88;1670371;84;21149;-58
2021/06/29 04:54:04;;;;;;;1.92;1.45;;;;;;;20.27;70.74;99372.96;1679530;83;21037;-57
2021/06/29 04:56:30;;;;;;;3.40;1.77;;;;;;;20.29;70.85;99373.69;1676116;83;21132;-57
2021/06/29 04:58:58;;;;;;;1.55;1.30;;;;;;;20.30;70.99;99373.55;1670309;83;21135;-58
2021/06/29 05:01:24;;;;;;;1.10;1.00;;;;;;;20.32;70.88;99372.05;1678612;83;21464;-59
2021/06/29 05:03:51;;;;;;;1.10;1.00;;;;;;;20.33;70.90;99375.97;1681143;83;22190;-59
2021/06/29 05:06:18;;;;;;;1.50;1.40;;;;;;;20.39;70.84;99375.95;1675354;83;21060;-56
2021/06/29 05:08:44;;;;;;;1.65;1.05;;;;;;;20.46;70.92;99377.09;1676689;83;21060;-57
2021/06/29 05:11:11;;;;;;;4.55;1.30;;;;;;;20.54;70.30;99373.12;1673937;83;21154;-56
2021/06/29 05:13:37;;;;;;;2.58;1.10;;;;;;;20.65;69.72;99373.47;1671052;83;21458;-59
2021/06/29 05:16:04;;;;;;;1.40;1.30;;;;;;;20.75;69.47;99370.22;1674725;83;21609;-58
2021/06/29 05:18:31;;;;;;;4.12;1.60;;;;;;;20.84;68.93;99365.73;1708442;82;21091;-60
2021/06/29 05:20:57;;;;;;;1.20;1.10;;;;;;;20.94;68.36;99368.77;1707117;82;21399;-58
2021/06/29 05:23:23;;;;;;;1.12;1.02;;;;;;;21.03;68.12;99368.39;1676686;83;21661;-59
2021/06/29 05:25:50;;;;;;;1.72;0.98;;;;;;;21.12;68.27;99358.77;1677482;83;21122;-56
2021/06/29 05:28:20;;;;;;;1.00;0.90;;;;;;;21.22;67.69;99363.38;1707028;82;21076;-57
2021/06/29 05:30:48;;;;;;;3.22;1.10;;;;;;;21.32;67.00;99361.47;1712052;82;21438;-57
2021/06/29 05:33:18;;;;;;;1.70;1.02;;;;;;;21.45;66.76;99364.70;1710464;82;21070;-58
2021/06/29 05:35:45;;;;;;;3.58;1.10;;;;;;;21.55;66.24;99361.41;1671567;83;21546;-56
2021/06/29 05:38:11;;;;;;;2.05;1.27;;;;;;;21.65;66.02;99369.06;1675634;83;21689;-58
2021/06/29 05:40:37;;;;;;;4.70;1.20;;;;;;;21.74;65.43;99362.67;1707948;81;21038;-57
2021/06/29 05:43:04;;;;;;;1.55;1.45;;;;;;;21.81;65.26;99359.66;1715489;81;21137;-56
2021/06/29 05:45:30;;;;;;;3.47;1.30;;;;;;;21.90;64.84;99360.10;1711222;81;21563;-57
2021/06/29 05:47:57;;;;;;;3.15;1.35;;;;;;;21.98;64.39;99361.23;1712489;81;21093;-58
2021/06/29 05:50:23;;;;;;;3.42;1.10;;;;;;;22.04;64.18;99360.59;1716434;81;21136;-56
2021/06/29 05:52:50;;;;;;;2.17;1.15;;;;;;;22.11;63.87;99357.61;1708135;81;21081;-56
2021/06/29 05:55:16;;;;;;;1.15;0.90;;;;;;;22.19;63.90;99359.06;1712092;81;21107;-55
2021/06/29 05:57:42;;;;;;;0.80;0.80;;;;;;;22.29;63.45;99357.07;1715210;81;21096;-56
2021/06/29 06:00:13;;;;;;;1.85;1.10;;;;;;;22.38;63.14;99358.86;1718822;81;21124;-56
2021/06/29 06:02:39;;;;;;;3.52;1.00;;;;;;;22.48;62.63;99357.41;1717753;81;21727;-56
2021/06/29 06:05:07;;;;;;;1.98;1.40;;;;;;;22.57;62.55;99351.83;1710422;81;21034;-56
2021/06/29 06:07:34;;;;;;;1.35;0.93;;;;;;;22.67;62.07;99354.48;1708327;81;21106;-56
2021/06/29 06:10:01;;;;;;;2.45;1.07;;;;;;;22.76;62.27;99356.30;1719727;81;21595;-56
2021/06/29 06:12:27;;;;;;;1.75;0.90;;;;;;;22.88;62.10;99348.67;1674070;83;21733;-57
2021/06/29 06:14:55;;;;;;;2.15;1.00;;;;;;;22.99;61.94;99356.61;1676664;83;21149;-56
2021/06/29 06:17:22;;;;;;;1.25;1.15;;;;;;;23.07;61.36;99358.02;1670813;83;21491;-57
2021/06/29 06:19:49;;;;;;;1.72;1.12;;;;;;;23.14;61.13;99360.46;1679002;83;21392;-57
2021/06/29 06:22:15;;;;;;;2.75;1.32;;;;;;;23.21;60.75;99363.44;1674892;83;21166;-58
2021/06/29 06:24:41;;;;;;;2.67;0.90;;;;;;;23.26;60.92;99359.16;1675839;83;21040;-56
2021/06/29 06:27:10;;;;;;;1.75;0.88;;;;;;;23.32;60.81;99362.62;1675935;83;21833;-57
2021/06/29 06:29:36;;;;;;;3.25;1.02;;;;;;;23.40;60.66;99360.42;1685265;83;21053;-58
2021/06/29 06:32:02;;;;;;;1.10;0.93;;;;;;;23.49;60.22;99357.23;1675922;83;21109;-57
2021/06/29 06:34:29;;;;;;;4.00;1.05;;;;;;;23.56;59.56;99362.44;1681916;83;21638;-57
2021/06/29 06:36:55;;;;;;;1.60;1.00;;;;;;;23.60;57.71;99355.05;1675133;83;21076;-58
2021/06/29 06:39:21;;;;;;;2.67;0.88;;;;;;;23.65;57.68;99351.79;1675971;83;21151;-57
2021/06/29 06:41:47;;;;;;;0.80;0.70;;;;;;;23.69;57.77;99348.56;1672385;83;21115;-57
2021/06/29 06:44:14;;;;;;;1.20;0.80;;;;;;;23.73;57.11;99353.22;1669198;83;21073;-57
2021/06/29 06:46:40;;;;;;;0.95;0.70;;;;;;;23.77;56.40;99344.97;1695026;82;21078;-57
2021/06/29 06:49:06;;;;;;;1.35;0.90;;;;;;;23.82;55.33;99347.23;1700460;82;21124;-58
2021/06/29 06:51:33;;;;;;;0.80;0.80;;;;;;;23.85;55.82;99344.99;1695360;82;21139;-57
2021/06/29 06:53:59;;;;;;;1.10;1.00;;;;;;;23.90;55.56;99351.38;1705872;82;21072;-57
2021/06/29 06:56:26;;;;;;;0.70;0.70;;;;;;;23.95;56.07;99346.22;1699792;82;21144;-58
2021/06/29 06:58:53;;;;;;;1.20;0.80;;;;;;;23.99;55.83;99347.58;1702548;82;21006;-57
2021/06/29 07:01:19;;;;;;;3.22;0.70;;;;;;;24.05;54.91;99351.05;1701923;82;21717;-58
2021/06/29 07:03:45;;;;;;;1.00;0.70;;;;;;;24.10;54.63;99344.00;1700657;82;21050;-58
2021/06/29 07:06:13;;;;;;;1.90;0.60;;;;;;;24.17;55.10;99351.05;1691810;82;21092;-56
2021/06/29 07:08:41;;;;;;;0.95;0.60;;;;;;;24.23;55.46;99346.81;1698242;82;20957;-56
2021/06/29 07:11:08;;;;;;;1.75;0.60;;;;;;;24.29;54.97;99349.73;1703528;82;20963;-56
2021/06/29 07:13:35;;;;;;;0.62;0.62;;;;;;;24.37;55.22;99354.38;1665583;83;20983;-56
2021/06/29 07:16:02;;;;;;;1.02;0.60;;;;;;;24.43;55.28;99348.18;1705988;82;22318;-56
2021/06/29 07:18:28;;;;;;;1.37;0.70;;;;;;;24.49;55.34;99351.64;1706943;82;20977;-57
2021/06/29 07:20:54;;;;;;;2.33;0.90;;;;;;;24.58;55.45;99351.98;1698708;82;21679;-57
2021/06/29 07:23:20;;;;;;;1.37;0.70;;;;;;;24.67;54.92;99353.67;1696262;82;21047;-58
2021/06/29 07:25:47;;;;;;;0.70;0.60;;;;;;;24.75;54.64;99353.66;1691084;82;21082;-56
2021/06/29 07:28:13;;;;;;;2.42;0.53;;;;;;;24.83;54.04;99355.05;1704371;82;21123;-57
2021/06/29 07:30:40;;;;;;;1.20;0.60;;;;;;;24.89;53.52;99363.98;1664359;83;21053;-58
2021/06/29 07:33:07;;;;;;;0.78;0.70;;;;;;;24.95;52.68;99351.95;1676891;83;21076;-56
2021/06/29 07:35:33;;;;;;;0.60;0.60;;;;;;;25.01;52.84;99357.61;1701265;82;21074;-57
2021/06/29 07:38:00;;;;;;;1.85;0.70;;;;;;;25.11;53.22;99362.41;1703551;82;21693;-57
2021/06/29 07:40:29;;;;;;;1.98;0.55;;;;;;;25.21;52.40;99356.19;1697696;82;21090;-55
2021/06/29 07:42:59;;;;;;;0.90;0.53;;;;;;;25.32;51.82;99352.20;1668535;83;21440;-57
2021/06/29 07:45:28;;;;;;;0.50;0.50;;;;;;;25.45;52.32;99354.38;1671990;83;21096;-58
2021/06/29 07:47:56;;;;;;;0.50;0.50;;;;;;;25.57;51.39;99352.95;1711913;81;21310;-57
2021/06/29 07:50:23;;;;;;;1.82;0.57;;;;;;;25.62;50.67;99362.95;1673127;83;21128;-57
2021/06/29 07:52:49;;;;;;;0.60;0.53;;;;;;;25.67;49.33;99363.28;1707884;81;21115;-57
2021/06/29 07:55:16;;;;;;;1.85;0.60;;;;;;;25.67;48.00;99354.16;1673895;83;21087;-57
2021/06/29 07:57:43;;;;;;;0.80;0.60;;;;;;;25.66;48.13;99353.81;1676887;83;21088;-57
2021/06/29 08:00:10;;;;;;;5.53;1.82;;;;;;;25.67;49.35;99356.39;1673151;83;21112;-58
2021/06/29 08:02:41;;;;;;;2.47;0.60;;;;;;;25.71;49.52;99359.11;1716540;81;22535;-56
2021/06/29 08:05:09;;;;;;;0.50;0.50;;;;;;;25.79;49.01;99351.31;1709862;81;21131;-57
2021/06/29 08:07:35;;;;;;;0.60;0.47;;;;;;;25.91;48.72;99350.74;1706125;81;21042;-58
2021/06/29 08:10:05;;;;;;;2.08;0.47;;;;;;;26.01;47.26;99350.52;1705407;81;21428;-57
2021/06/29 08:12:31;;;;;;;0.50;0.50;;;;;;;26.06;47.00;99354.09;1707144;81;21074;-58
2021/06/29 08:14:58;;;;;;;0.50;0.47;;;;;;;26.13;47.26;99344.04;1670153;83;21629;-57
2021/06/29 08:17:24;;;;;;;2.00;0.42;;;;;;;26.22;47.27;99349.32;1709794;81;21963;-58
2021/06/29 08:19:51;;;;;;;0.45;0.42;;;;;;;26.33;46.33;99343.94;1704733;81;21497;-56
2021/06/29 08:22:18;;;;;;;2.08;0.42;;;;;;;26.42;45.96;99337.83;1708899;81;22081;-57
2021/06/29 08:24:45;;;;;;;1.27;0.40;;;;;;;26.47;45.90;99336.73;1711567;81;21144;-56
2021/06/29 08:27:14;;;;;;;0.70;0.50;;;;;;;26.53;45.21;99331.88;1709688;81;21789;-57
2021/06/29 08:29:44;;;;;;;0.47;0.40;;;;;;;26.58;43.89;99333.55;1669745;83;21171;-57
2021/06/29 08:32:11;;;;;;;0.47;0.47;;;;;;;26.62;44.25;99327.48;1715435;81;21750;-57
2021/06/29 08:34:37;;;;;;;0.50;0.50;;;;;;;26.64;43.62;99325.38;1707444;81;21801;-56
2021/06/29 08:37:03;;;;;;;0.98;0.40;;;;;;;26.65;43.71;99328.47;1667153;83;21081;-57
2021/06/29 08:39:30;;;;;;;0.50;0.50;;;;;;;26.69;44.29;99328.45;1707910;81;21085;-58
2021/06/29 08:41:56;;;;;;;0.53;0.50;;;;;;;26.76;42.29;99339.59;1705803;81;21829;-56
2021/06/29 08:44:24;;;;;;;2.50;0.40;;;;;;;26.82;43.09;99337.97;1702265;81;21324;-57
2021/06/29 08:46:51;;;;;;;0.62;0.40;;;;;;;26.85;43.07;99339.85;1706227;81;21585;-57
2021/06/29 08:49:17;;;;;;;2.15;1.22;;;;;;;26.92;43.82;99342.74;1710224;81;21045;-58
2021/06/29 08:51:44;;;;;;;2.52;0.85;;;;;;;26.95;42.28;99343.23;1675522;83;21026;-58
2021/06/29 08:54:10;;;;;;;0.80;0.40;;;;;;;26.94;42.14;99348.42;1706982;81;21101;-57
2021/06/29 08:56:36;;;;;;;1.85;0.80;;;;;;;26.90;41.97;99337.89;1680873;83;21474;-57
2021/06/29 08:59:04;;;;;;;0.82;0.60;;;;;;;26.82;42.88;99352.64;1671078;83;21402;-58
2021/06/29 09:01:32;;;;;;;1.92;0.50;;;;;;;26.64;43.60;99341.94;1712926;81;20947;-58
2021/06/29 09:03:58;;;;;;;4.45;0.50;;;;;;;26.40;44.42;99346.81;1708152;81;21049;-57
2021/06/29 09:06:40;;;;;;;5.45;0.80;;;;;;;26.20;44.95;99346.43;1718294;81;21123;-57
2021/06/29 09:09:28;;;;;;;0.50;0.47;;;;;;;26.03;45.16;99342.89;1707030;81;20959;-57
2021/06/29 09:11:55;;;;;;;2.12;0.40;;;;;;;25.85;44.70;99343.21;1710149;82;21120;-57
2021/06/29 09:14:31;;;;;;;7.70;3.65;;;;;;;25.61;43.51;99338.66;1708527;82;21015;-57
2021/06/29 09:17:19;;;;;;;0.70;0.50;;;;;;;25.43;44.59;99333.92;1710674;82;21438;-57
2021/06/29 09:19:45;;;;;;;0.60;0.50;;;;;;;25.33;44.66;99333.78;1714754;81;22079;-57
2021/06/29 09:22:32;;;;;;;0.80;0.40;;;;;;;25.28;45.66;99337.56;1671910;83;21044;-58
2021/06/29 09:25:01;;;;;;;0.30;0.30;;;;;;;25.25;45.75;99334.67;1672136;83;21380;-57
2021/06/29 09:27:44;;;;;;;1.30;0.30;;;;;;;25.32;45.33;99335.67;1704277;81;21065;-56
2021/06/29 09:30:41;;;;;;;0.65;0.40;;;;;;;25.38;45.92;99332.20;1706064;81;22144;-57
2021/06/29 09:33:15;;;;;;;0.30;0.30;;;;;;;25.51;45.95;99319.24;1672877;83;21302;-57
2021/06/29 09:35:42;;;;;;;0.40;0.40;;;;;;;25.61;45.74;99315.23;1713734;81;20962;-57
2021/06/29 09:38:09;;;;;;;1.10;0.30;;;;;;;25.64;46.11;99301.63;1677462;83;21482;-56
2021/06/29 09:40:36;;;;;;;1.05;0.40;;;;;;;25.74;46.06;99308.29;1709721;81;21382;-57
2021/06/29 09:43:16;;;;;;;0.78;0.40;;;;;;;25.78;45.25;99301.35;1711458;81;21821;-56
2021/06/29 09:45:51;;;;;;;0.75;0.40;;;;;;;25.77;44.91;99312.08;1699828;82;21136;-55
2021/06/29 09:48:31;;;;;;;0.70;0.45;;;;;;;25.70;44.85;99304.16;1670295;83;21120;-54
2021/06/29 09:51:01;;;;;;;2.15;0.40;;;;;;;25.66;45.07;99315.23;1691549;82;21077;-55
2021/06/29 09:53:30;;;;;;;0.70;0.45;;;;;;;25.59;46.15;99300.80;1664570;83;21262;-55
2021/06/29 09:56:03;;;;;;;0.40;0.40;;;;;;;25.50;46.39;99296.33;1665772;84;22475;-56
2021/06/29 09:58:31;;;;;;;0.40;0.30;;;;;;;25.46;46.71;99294.97;1669707;83;21461;-55
2021/06/29 10:00:59;;;;;;;1.30;0.40;;;;;;;25.49;47.64;99289.63;1709075;81;21984;-56
2021/06/29 10:03:32;;;;;;;0.30;0.30;;;;;;;25.53;46.82;99283.55;1664822;83;20985;-55
2021/06/29 10:06:02;;;;;;;0.35;0.35;;;;;;;25.58;46.36;99287.16;1703031;81;20895;-55
2021/06/29 10:08:34;;;;;;;2.22;0.30;;;;;;;25.62;45.88;99281.12;1706891;82;21062;-55
2021/06/29 10:11:07;;;;;;;0.30;0.20;;;;;;;25.74;45.81;99280.72;1702146;82;21103;-56
2021/06/29 10:13:48;;;;;;;0.20;0.20;;;;;;;25.85;44.92;99283.07;1705282;82;25305;-56
2021/06/29 10:16:16;;;;;;;1.05;0.28;;;;;;;25.99;43.95;99278.14;1704119;82;20895;-55
2021/06/29 10:18:50;;;;;;;0.30;0.30;;;;;;;26.15;43.83;99284.05;1705887;82;21074;-55
2021/06/29 10:21:18;;;;;;;0.40;0.40;;;;;;;26.22;43.99;99278.97;1694423;82;20940;-55
2021/06/29 10:23:43;;;;;;;0.55;0.40;;;;;;;26.27;43.50;99293.13;1667692;83;21096;-55
2021/06/29 10:26:10;;;;;;;0.50;0.37;;;;;;;26.27;42.87;99283.47;1699211;82;21429;-55
2021/06/29 10:28:37;;;;;;;1.42;0.40;;;;;;;26.24;43.32;99282.41;1700192;82;21046;-55
2021/06/29 10:31:03;;;;;;;1.50;0.40;;;;;;;26.24;42.64;99281.03;1704009;82;20975;-55
2021/06/29 10:33:30;;;;;;;0.40;0.40;;;;;;;26.24;43.29;99286.55;1698381;82;20887;-55
2021/06/29 10:35:59;;;;;;;0.40;0.30;;;;;;;26.29;43.51;99282.73;1701538;82;21736;-55
2021/06/29 10:38:26;;;;;;;0.42;0.40;;;;;;;26.34;43.00;99277.53;1702982;82;21023;-55
2021/06/29 10:40:53;;;;;;;0.78;0.40;;;;;;;26.43;43.62;99279.70;1694180;82;21452;-56
2021/06/29 10:43:20;;;;;;;1.67;0.40;;;;;;;26.55;43.22;99277.33;1641543;84;21097;-56
2021/06/29 10:45:52;;;;;;;0.60;0.50;;;;;;;26.61;43.06;99277.98;1705256;81;21483;-56
2021/06/29 10:48:22;;;;;;;0.90;0.40;;;;;;;26.71;43.20;99271.67;1704632;81;21157;-56
2021/06/29 10:50:50;;;;;;;0.40;0.40;;;;;;;26.84;44.36;99271.86;1706786;81;21084;-56
2021/06/29 10:53:38;;;;;;;0.50;0.50;;;;;;;26.96;43.94;99270.39;1703181;81;21559;-56
2021/06/29 10:56:10;;;;;;;1.25;0.50;;;;;;;27.08;43.48;99268.84;1710064;81;21069;-56
2021/06/29 10:58:41;;;;;;;0.50;0.50;;;;;;;27.18;42.57;99254.75;1708398;81;21124;-55
2021/06/29 11:01:26;;;;;;;2.27;0.50;;;;;;;27.28;43.05;99265.50;1707627;81;21109;-56
2021/06/29 11:04:01;;;;;;;0.50;0.42;;;;;;;27.34;41.97;99267.48;1712053;81;20987;-57
2021/06/29 11:06:31;;;;;;;2.75;0.57;;;;;;;27.38;42.72;99272.45;1708798;81;24891;-56
2021/06/29 11:08:59;;;;;;;1.15;0.50;;;;;;;27.43;41.40;99272.72;1699913;81;21140;-56
2021/06/29 11:11:27;;;;;;;2.92;0.70;;;;;;;27.39;41.69;99276.08;1690209;81;21069;-57
2021/06/29 11:13:54;;;;;;;0.60;0.50;;;;;;;27.26;41.69;99283.66;1714911;81;21102;-56
2021/06/29 11:16:55;;;;;;;0.65;0.50;;;;;;;27.17;42.65;99286.18;1713662;81;20970;-57
2021/06/29 11:19:21;;;;;;;0.60;0.60;;;;;;;27.09;41.44;99279.38;1687585;81;21095;-57
2021/06/29 11:21:48;;;;;;;0.40;0.40;;;;;;;26.90;42.19;99284.90;1709953;81;21100;-56
2021/06/29 11:24:36;;;;;;;1.57;0.60;;;;;;;26.77;42.28;99284.71;1673395;83;21056;-58
2021/06/29 11:27:04;;;;;;;0.68;0.50;;;;;;;26.64;42.77;99280.34;1706699;81;21122;-56
2021/06/29 11:29:41;;;;;;;0.62;0.50;;;;;;;26.51;41.87;99271.34;1671456;83;21050;-57
2021/06/29 11:32:29;;;;;;;0.60;0.60;;;;;;;26.35;42.01;99277.02;1709965;81;21117;-58
2021/06/29 11:34:55;;;;;;;2.12;0.60;;;;;;;26.23;42.69;99271.56;1673868;83;21048;-57
2021/06/29 11:37:22;;;;;;;0.78;0.50;;;;;;;26.17;43.79;99271.79;1689801;82;21077;-55
2021/06/29 11:39:58;;;;;;;1.15;0.60;;;;;;;26.19;43.76;99261.44;1703925;81;21626;-55